Terminal Aerodrome Forecast
Issued by NWS Cleveland, OH

Home | Current Version | Previous Version | Graphics & Text | Print | Product List | Glossary On
Versions: 1 2 3 4 5 6 7 8 9 10 11 12 13 14 15 16
000
FTUS41 KCLE 310500
TAFERI
TAF
KERI 310540Z 3106/0106 19005KT P6SM VCSH BKN080
     FM310800 20005KT P6SM BKN050
      TEMPO 3109/3113 4SM -SHRA BKN030
     FM311400 25006KT P6SM BKN040
     FM311800 26008KT P6SM SCT045
     FM010100 18004KT P6SM SCT050=

USA.gov is the U.S. government's official web portal to all federal, state and local government web resources and services.